sensor_id;sensor_type;location;lat;lon;timestamp;P1;durP1;ratioP1;P2;durP2;ratioP2
70733;SDS011;58320;48.804;9.252;2023-09-19T00:00:37;3.65;;;0.98;;
70733;SDS011;58320;48.804;9.252;2023-09-19T00:03:05;2.50;;;0.82;;
70733;SDS011;58320;48.804;9.252;2023-09-19T00:05:33;3.70;;;0.90;;
70733;SDS011;58320;48.804;9.252;2023-09-19T00:08:01;4.95;;;1.00;;
70733;SDS011;58320;48.804;9.252;2023-09-19T00:10:31;3.70;;;1.07;;
70733;SDS011;58320;48.804;9.252;2023-09-19T00:13:00;3.55;;;1.20;;
70733;SDS011;58320;48.804;9.252;2023-09-19T00:15:30;5.68;;;1.00;;
70733;SDS011;58320;48.804;9.252;2023-09-19T00:18:13;2.47;;;0.98;;
70733;SDS011;58320;48.804;9.252;2023-09-19T00:20:40;2.90;;;1.08;;
70733;SDS011;58320;48.804;9.252;2023-09-19T00:23:07;2.97;;;1.00;;
70733;SDS011;58320;48.804;9.252;2023-09-19T00:25:36;2.30;;;0.80;;
70733;SDS011;58320;48.804;9.252;2023-09-19T00:28:02;2.28;;;0.77;;
70733;SDS011;58320;48.804;9.252;2023-09-19T00:30:29;2.95;;;0.93;;
70733;SDS011;58320;48.804;9.252;2023-09-19T00:32:55;4.07;;;1.38;;
70733;SDS011;58320;48.804;9.252;2023-09-19T00:35:21;4.13;;;1.00;;
70733;SDS011;58320;48.804;9.252;2023-09-19T00:37:49;3.03;;;1.10;;
70733;SDS011;58320;48.804;9.252;2023-09-19T00:40:15;2.47;;;1.05;;
70733;SDS011;58320;48.804;9.252;2023-09-19T00:42:45;2.90;;;1.10;;
70733;SDS011;58320;48.804;9.252;2023-09-19T00:45:12;3.50;;;0.90;;
70733;SDS011;58320;48.804;9.252;2023-09-19T00:47:41;4.53;;;1.00;;
70733;SDS011;58320;48.804;9.252;2023-09-19T00:50:10;2.60;;;0.90;;
70733;SDS011;58320;48.804;9.252;2023-09-19T00:52:39;2.85;;;0.90;;
70733;SDS011;58320;48.804;9.252;2023-09-19T00:55:07;2.80;;;1.42;;
70733;SDS011;58320;48.804;9.252;2023-09-19T00:57:36;3.15;;;1.20;;
70733;SDS011;58320;48.804;9.252;2023-09-19T01:00:03;4.20;;;1.10;;
70733;SDS011;58320;48.804;9.252;2023-09-19T01:02:33;2.65;;;1.00;;
70733;SDS011;58320;48.804;9.252;2023-09-19T01:05:00;3.63;;;1.00;;
70733;SDS011;58320;48.804;9.252;2023-09-19T01:07:27;2.70;;;1.00;;
70733;SDS011;58320;48.804;9.252;2023-09-19T01:09:55;3.83;;;1.30;;
70733;SDS011;58320;48.804;9.252;2023-09-19T01:12:28;3.57;;;1.30;;
70733;SDS011;58320;48.804;9.252;2023-09-19T01:15:11;3.13;;;1.02;;
70733;SDS011;58320;48.804;9.252;2023-09-19T01:23:27;4.03;;;1.05;;
70733;SDS011;58320;48.804;9.252;2023-09-19T01:29:47;2.67;;;0.95;;
70733;SDS011;58320;48.804;9.252;2023-09-19T01:32:16;3.13;;;1.00;;
70733;SDS011;58320;48.804;9.252;2023-09-19T01:34:56;2.72;;;1.00;;
70733;SDS011;58320;48.804;9.252;2023-09-19T01:37:28;3.00;;;1.00;;
70733;SDS011;58320;48.804;9.252;2023-09-19T01:39:55;2.43;;;0.93;;
70733;SDS011;58320;48.804;9.252;2023-09-19T01:42:43;3.78;;;1.10;;
70733;SDS011;58320;48.804;9.252;2023-09-19T01:45:35;5.63;;;1.00;;
70733;SDS011;58320;48.804;9.252;2023-09-19T01:54:30;2.00;;;0.90;;
70733;SDS011;58320;48.804;9.252;2023-09-19T01:57:14;3.22;;;0.93;;
70733;SDS011;58320;48.804;9.252;2023-09-19T02:00:04;2.65;;;1.02;;
70733;SDS011;58320;48.804;9.252;2023-09-19T02:02:34;2.55;;;1.05;;
70733;SDS011;58320;48.804;9.252;2023-09-19T02:05:03;2.40;;;1.00;;
70733;SDS011;58320;48.804;9.252;2023-09-19T02:07:30;2.40;;;1.00;;
70733;SDS011;58320;48.804;9.252;2023-09-19T02:09:59;3.00;;;0.80;;
70733;SDS011;58320;48.804;9.252;2023-09-19T02:12:31;4.95;;;1.10;;
70733;SDS011;58320;48.804;9.252;2023-09-19T02:15:00;3.13;;;0.73;;
70733;SDS011;58320;48.804;9.252;2023-09-19T02:17:26;1.88;;;0.60;;
70733;SDS011;58320;48.804;9.252;2023-09-19T02:19:54;2.80;;;0.77;;
70733;SDS011;58320;48.804;9.252;2023-09-19T02:22:21;2.33;;;0.80;;
70733;SDS011;58320;48.804;9.252;2023-09-19T02:24:47;2.70;;;0.93;;
70733;SDS011;58320;48.804;9.252;2023-09-19T02:27:13;2.20;;;0.77;;
70733;SDS011;58320;48.804;9.252;2023-09-19T02:29:41;3.42;;;1.10;;
70733;SDS011;58320;48.804;9.252;2023-09-19T02:32:07;2.63;;;0.80;;
70733;SDS011;58320;48.804;9.252;2023-09-19T02:34:34;2.28;;;0.73;;
70733;SDS011;58320;48.804;9.252;2023-09-19T02:37:04;2.30;;;0.80;;
70733;SDS011;58320;48.804;9.252;2023-09-19T02:39:31;2.97;;;0.70;;
70733;SDS011;58320;48.804;9.252;2023-09-19T02:41:57;2.92;;;0.80;;
70733;SDS011;58320;48.804;9.252;2023-09-19T02:44:23;2.55;;;0.80;;
70733;SDS011;58320;48.804;9.252;2023-09-19T02:46:49;2.08;;;0.70;;
70733;SDS011;58320;48.804;9.252;2023-09-19T02:49:15;2.10;;;0.73;;
70733;SDS011;58320;48.804;9.252;2023-09-19T02:51:43;1.85;;;0.70;;
70733;SDS011;58320;48.804;9.252;2023-09-19T02:54:09;2.42;;;1.00;;
70733;SDS011;58320;48.804;9.252;2023-09-19T02:56:36;3.80;;;0.98;;
70733;SDS011;58320;48.804;9.252;2023-09-19T02:59:02;2.33;;;0.95;;
70733;SDS011;58320;48.804;9.252;2023-09-19T03:01:29;3.80;;;1.00;;
70733;SDS011;58320;48.804;9.252;2023-09-19T03:03:55;2.70;;;1.00;;
70733;SDS011;58320;48.804;9.252;2023-09-19T03:06:21;3.80;;;1.00;;
70733;SDS011;58320;48.804;9.252;2023-09-19T03:08:48;3.08;;;1.00;;
70733;SDS011;58320;48.804;9.252;2023-09-19T03:11:16;2.28;;;0.70;;
70733;SDS011;58320;48.804;9.252;2023-09-19T03:13:50;2.47;;;0.70;;
70733;SDS011;58320;48.804;9.252;2023-09-19T03:16:19;3.22;;;0.95;;
70733;SDS011;58320;48.804;9.252;2023-09-19T03:18:50;3.00;;;0.88;;
70733;SDS011;58320;48.804;9.252;2023-09-19T03:21:16;4.00;;;1.33;;
70733;SDS011;58320;48.804;9.252;2023-09-19T03:23:42;3.03;;;1.00;;
70733;SDS011;58320;48.804;9.252;2023-09-19T03:26:10;2.33;;;1.00;;
70733;SDS011;58320;48.804;9.252;2023-09-19T03:28:38;4.53;;;1.10;;
70733;SDS011;58320;48.804;9.252;2023-09-19T03:31:04;3.22;;;1.00;;
70733;SDS011;58320;48.804;9.252;2023-09-19T03:33:31;2.97;;;1.20;;
70733;SDS011;58320;48.804;9.252;2023-09-19T03:35:58;3.13;;;0.70;;
70733;SDS011;58320;48.804;9.252;2023-09-19T03:38:31;3.08;;;1.17;;
70733;SDS011;58320;48.804;9.252;2023-09-19T03:40:59;3.00;;;0.80;;
70733;SDS011;58320;48.804;9.252;2023-09-19T03:43:26;2.10;;;0.80;;
70733;SDS011;58320;48.804;9.252;2023-09-19T03:45:52;2.30;;;0.97;;
70733;SDS011;58320;48.804;9.252;2023-09-19T03:48:19;2.85;;;1.00;;
70733;SDS011;58320;48.804;9.252;2023-09-19T03:50:46;2.83;;;1.13;;
70733;SDS011;58320;48.804;9.252;2023-09-19T03:53:12;5.10;;;1.05;;
70733;SDS011;58320;48.804;9.252;2023-09-19T03:55:38;5.63;;;1.00;;
70733;SDS011;58320;48.804;9.252;2023-09-19T03:58:05;4.30;;;1.15;;
70733;SDS011;58320;48.804;9.252;2023-09-19T04:00:31;3.00;;;1.10;;
70733;SDS011;58320;48.804;9.252;2023-09-19T04:02:57;2.85;;;1.15;;
70733;SDS011;58320;48.804;9.252;2023-09-19T04:05:23;2.63;;;0.90;;
70733;SDS011;58320;48.804;9.252;2023-09-19T04:07:49;2.13;;;1.00;;
70733;SDS011;58320;48.804;9.252;2023-09-19T04:10:15;3.50;;;1.10;;
70733;SDS011;58320;48.804;9.252;2023-09-19T04:12:51;3.17;;;1.13;;
70733;SDS011;58320;48.804;9.252;2023-09-19T04:15:21;3.60;;;1.00;;
70733;SDS011;58320;48.804;9.252;2023-09-19T04:17:48;4.60;;;1.30;;
70733;SDS011;58320;48.804;9.252;2023-09-19T04:20:17;2.70;;;0.82;;
70733;SDS011;58320;48.804;9.252;2023-09-19T04:22:44;2.40;;;0.90;;
70733;SDS011;58320;48.804;9.252;2023-09-19T04:25:11;3.10;;;0.90;;
70733;SDS011;58320;48.804;9.252;2023-09-19T04:27:37;2.92;;;1.52;;
70733;SDS011;58320;48.804;9.252;2023-09-19T04:30:03;3.58;;;1.10;;
70733;SDS011;58320;48.804;9.252;2023-09-19T04:32:35;2.63;;;1.00;;
70733;SDS011;58320;48.804;9.252;2023-09-19T04:35:04;3.10;;;1.07;;
70733;SDS011;58320;48.804;9.252;2023-09-19T04:37:33;2.42;;;1.02;;
70733;SDS011;58320;48.804;9.252;2023-09-19T04:40:08;2.33;;;0.98;;
70733;SDS011;58320;48.804;9.252;2023-09-19T04:42:42;2.47;;;0.98;;
70733;SDS011;58320;48.804;9.252;2023-09-19T04:45:09;2.92;;;1.08;;
70733;SDS011;58320;48.804;9.252;2023-09-19T04:47:36;2.43;;;0.87;;
70733;SDS011;58320;48.804;9.252;2023-09-19T04:50:04;4.53;;;1.02;;
70733;SDS011;58320;48.804;9.252;2023-09-19T04:52:33;3.20;;;1.13;;
70733;SDS011;58320;48.804;9.252;2023-09-19T04:54:58;2.80;;;1.10;;
70733;SDS011;58320;48.804;9.252;2023-09-19T04:57:24;2.30;;;0.90;;
70733;SDS011;58320;48.804;9.252;2023-09-19T04:59:51;3.72;;;1.30;;
70733;SDS011;58320;48.804;9.252;2023-09-19T05:02:16;3.33;;;1.20;;
70733;SDS011;58320;48.804;9.252;2023-09-19T05:04:42;3.90;;;1.42;;
70733;SDS011;58320;48.804;9.252;2023-09-19T05:07:08;3.78;;;1.20;;
70733;SDS011;58320;48.804;9.252;2023-09-19T05:09:36;3.80;;;1.13;;
70733;SDS011;58320;48.804;9.252;2023-09-19T05:12:02;4.75;;;1.30;;
70733;SDS011;58320;48.804;9.252;2023-09-19T05:14:28;4.15;;;1.40;;
70733;SDS011;58320;48.804;9.252;2023-09-19T05:16:54;3.10;;;1.50;;
70733;SDS011;58320;48.804;9.252;2023-09-19T05:19:20;4.40;;;1.70;;
70733;SDS011;58320;48.804;9.252;2023-09-19T05:21:46;5.43;;;1.80;;
70733;SDS011;58320;48.804;9.252;2023-09-19T05:24:12;3.47;;;1.70;;
70733;SDS011;58320;48.804;9.252;2023-09-19T05:26:39;4.47;;;1.70;;
70733;SDS011;58320;48.804;9.252;2023-09-19T05:29:05;3.75;;;1.88;;
70733;SDS011;58320;48.804;9.252;2023-09-19T05:31:33;5.68;;;1.77;;
70733;SDS011;58320;48.804;9.252;2023-09-19T05:34:01;5.30;;;1.60;;
70733;SDS011;58320;48.804;9.252;2023-09-19T05:36:27;4.37;;;1.60;;
70733;SDS011;58320;48.804;9.252;2023-09-19T05:38:54;3.85;;;1.50;;
70733;SDS011;58320;48.804;9.252;2023-09-19T05:41:20;4.03;;;1.48;;
70733;SDS011;58320;48.804;9.252;2023-09-19T05:43:48;4.93;;;1.97;;
70733;SDS011;58320;48.804;9.252;2023-09-19T05:46:15;6.45;;;2.42;;
70733;SDS011;58320;48.804;9.252;2023-09-19T05:48:41;7.78;;;2.50;;
70733;SDS011;58320;48.804;9.252;2023-09-19T05:51:09;5.03;;;2.42;;
70733;SDS011;58320;48.804;9.252;2023-09-19T05:53:35;5.90;;;2.03;;
70733;SDS011;58320;48.804;9.252;2023-09-19T05:56:00;3.55;;;1.70;;
70733;SDS011;58320;48.804;9.252;2023-09-19T05:58:26;4.35;;;1.92;;
70733;SDS011;58320;48.804;9.252;2023-09-19T06:00:52;4.00;;;1.90;;
70733;SDS011;58320;48.804;9.252;2023-09-19T06:03:18;4.47;;;2.00;;
70733;SDS011;58320;48.804;9.252;2023-09-19T06:05:45;5.82;;;2.60;;
70733;SDS011;58320;48.804;9.252;2023-09-19T06:08:14;4.00;;;2.10;;
70733;SDS011;58320;48.804;9.252;2023-09-19T06:10:40;5.40;;;2.10;;
70733;SDS011;58320;48.804;9.252;2023-09-19T06:13:05;6.68;;;2.83;;
70733;SDS011;58320;48.804;9.252;2023-09-19T06:15:34;5.53;;;2.67;;
70733;SDS011;58320;48.804;9.252;2023-09-19T06:18:01;9.10;;;2.42;;
70733;SDS011;58320;48.804;9.252;2023-09-19T06:20:30;4.43;;;2.20;;
70733;SDS011;58320;48.804;9.252;2023-09-19T06:22:56;6.22;;;2.65;;
70733;SDS011;58320;48.804;9.252;2023-09-19T06:25:22;6.03;;;2.50;;
70733;SDS011;58320;48.804;9.252;2023-09-19T06:27:48;5.68;;;2.20;;
70733;SDS011;58320;48.804;9.252;2023-09-19T06:30:17;4.32;;;2.42;;
70733;SDS011;58320;48.804;9.252;2023-09-19T06:32:43;4.45;;;2.60;;
70733;SDS011;58320;48.804;9.252;2023-09-19T06:35:13;5.70;;;3.00;;
70733;SDS011;58320;48.804;9.252;2023-09-19T06:37:41;4.70;;;2.67;;
70733;SDS011;58320;48.804;9.252;2023-09-19T06:40:11;5.45;;;3.13;;
70733;SDS011;58320;48.804;9.252;2023-09-19T06:42:41;5.03;;;2.88;;
70733;SDS011;58320;48.804;9.252;2023-09-19T06:45:13;6.00;;;2.60;;
70733;SDS011;58320;48.804;9.252;2023-09-19T06:47:43;6.53;;;2.93;;
70733;SDS011;58320;48.804;9.252;2023-09-19T06:50:19;5.38;;;2.50;;
70733;SDS011;58320;48.804;9.252;2023-09-19T06:52:48;5.10;;;2.63;;
70733;SDS011;58320;48.804;9.252;2023-09-19T06:55:17;4.90;;;2.20;;
70733;SDS011;58320;48.804;9.252;2023-09-19T06:57:50;6.10;;;2.53;;
70733;SDS011;58320;48.804;9.252;2023-09-19T07:00:16;3.93;;;2.20;;
70733;SDS011;58320;48.804;9.252;2023-09-19T07:05:29;4.40;;;2.30;;
70733;SDS011;58320;48.804;9.252;2023-09-19T07:07:56;5.13;;;2.00;;
70733;SDS011;58320;48.804;9.252;2023-09-19T07:10:24;4.93;;;2.60;;
70733;SDS011;58320;48.804;9.252;2023-09-19T07:13:00;6.00;;;2.27;;
70733;SDS011;58320;48.804;9.252;2023-09-19T07:15:29;4.68;;;2.30;;
70733;SDS011;58320;48.804;9.252;2023-09-19T07:17:59;5.53;;;2.42;;
70733;SDS011;58320;48.804;9.252;2023-09-19T07:20:26;4.55;;;2.10;;
70733;SDS011;58320;48.804;9.252;2023-09-19T07:22:53;4.55;;;2.40;;
70733;SDS011;58320;48.804;9.252;2023-09-19T07:25:24;5.43;;;2.23;;
70733;SDS011;58320;48.804;9.252;2023-09-19T07:27:51;4.57;;;1.85;;
70733;SDS011;58320;48.804;9.252;2023-09-19T07:30:16;6.68;;;2.42;;
70733;SDS011;58320;48.804;9.252;2023-09-19T07:32:42;4.50;;;1.83;;
70733;SDS011;58320;48.804;9.252;2023-09-19T07:35:08;4.60;;;1.80;;
70733;SDS011;58320;48.804;9.252;2023-09-19T07:37:34;4.55;;;1.80;;
70733;SDS011;58320;48.804;9.252;2023-09-19T07:40:01;4.70;;;1.85;;
70733;SDS011;58320;48.804;9.252;2023-09-19T07:42:32;5.43;;;2.00;;
70733;SDS011;58320;48.804;9.252;2023-09-19T07:45:02;3.58;;;1.77;;
70733;SDS011;58320;48.804;9.252;2023-09-19T07:47:28;4.10;;;1.70;;
70733;SDS011;58320;48.804;9.252;2023-09-19T07:49:55;4.10;;;1.85;;
70733;SDS011;58320;48.804;9.252;2023-09-19T07:52:21;5.28;;;1.75;;
70733;SDS011;58320;48.804;9.252;2023-09-19T07:54:48;5.03;;;1.80;;
70733;SDS011;58320;48.804;9.252;2023-09-19T07:57:14;5.10;;;2.20;;
70733;SDS011;58320;48.804;9.252;2023-09-19T07:59:40;4.88;;;1.80;;
70733;SDS011;58320;48.804;9.252;2023-09-19T08:02:07;3.53;;;1.70;;
70733;SDS011;58320;48.804;9.252;2023-09-19T08:04:34;4.10;;;1.50;;
70733;SDS011;58320;48.804;9.252;2023-09-19T08:07:00;2.80;;;1.35;;
70733;SDS011;58320;48.804;9.252;2023-09-19T08:09:29;3.90;;;1.60;;
70733;SDS011;58320;48.804;9.252;2023-09-19T08:11:58;4.07;;;1.60;;
70733;SDS011;58320;48.804;9.252;2023-09-19T08:14:27;5.88;;;1.70;;
70733;SDS011;58320;48.804;9.252;2023-09-19T08:16:56;4.38;;;1.50;;
70733;SDS011;58320;48.804;9.252;2023-09-19T08:19:23;3.35;;;1.75;;
70733;SDS011;58320;48.804;9.252;2023-09-19T08:21:54;5.63;;;1.63;;
70733;SDS011;58320;48.804;9.252;2023-09-19T08:24:23;3.85;;;1.38;;
70733;SDS011;58320;48.804;9.252;2023-09-19T08:26:54;7.15;;;1.55;;
70733;SDS011;58320;48.804;9.252;2023-09-19T08:29:20;3.63;;;1.38;;
70733;SDS011;58320;48.804;9.252;2023-09-19T08:31:52;5.55;;;1.50;;
70733;SDS011;58320;48.804;9.252;2023-09-19T08:34:20;3.63;;;1.33;;
70733;SDS011;58320;48.804;9.252;2023-09-19T08:36:48;4.07;;;1.63;;
70733;SDS011;58320;48.804;9.252;2023-09-19T08:39:17;3.08;;;1.55;;
70733;SDS011;58320;48.804;9.252;2023-09-19T08:41:44;2.85;;;1.30;;
70733;SDS011;58320;48.804;9.252;2023-09-19T08:44:10;3.20;;;1.30;;
70733;SDS011;58320;48.804;9.252;2023-09-19T08:46:36;3.77;;;1.67;;
70733;SDS011;58320;48.804;9.252;2023-09-19T08:49:32;3.08;;;1.17;;
70733;SDS011;58320;48.804;9.252;2023-09-19T08:52:07;3.97;;;1.65;;
70733;SDS011;58320;48.804;9.252;2023-09-19T08:54:56;4.22;;;1.13;;
70733;SDS011;58320;48.804;9.252;2023-09-19T08:57:29;4.03;;;1.33;;
70733;SDS011;58320;48.804;9.252;2023-09-19T09:00:02;4.45;;;1.40;;
70733;SDS011;58320;48.804;9.252;2023-09-19T09:02:39;3.53;;;1.15;;
70733;SDS011;58320;48.804;9.252;2023-09-19T09:05:08;3.45;;;1.13;;
70733;SDS011;58320;48.804;9.252;2023-09-19T09:07:36;2.75;;;1.15;;
70733;SDS011;58320;48.804;9.252;2023-09-19T09:10:03;4.27;;;1.30;;
70733;SDS011;58320;48.804;9.252;2023-09-19T09:12:29;2.83;;;1.30;;
70733;SDS011;58320;48.804;9.252;2023-09-19T09:14:55;2.53;;;1.10;;
70733;SDS011;58320;48.804;9.252;2023-09-19T09:17:22;3.05;;;1.45;;
70733;SDS011;58320;48.804;9.252;2023-09-19T09:19:49;2.65;;;1.30;;
70733;SDS011;58320;48.804;9.252;2023-09-19T09:22:18;2.57;;;1.23;;
70733;SDS011;58320;48.804;9.252;2023-09-19T09:24:56;2.80;;;0.95;;
70733;SDS011;58320;48.804;9.252;2023-09-19T09:27:30;3.85;;;1.42;;
70733;SDS011;58320;48.804;9.252;2023-09-19T09:29:59;2.83;;;1.13;;
70733;SDS011;58320;48.804;9.252;2023-09-19T09:32:25;4.80;;;1.20;;
70733;SDS011;58320;48.804;9.252;2023-09-19T09:35:02;4.30;;;1.30;;
70733;SDS011;58320;48.804;9.252;2023-09-19T09:37:34;3.20;;;1.30;;
70733;SDS011;58320;48.804;9.252;2023-09-19T09:40:03;3.72;;;1.30;;
70733;SDS011;58320;48.804;9.252;2023-09-19T09:42:39;2.88;;;1.10;;
70733;SDS011;58320;48.804;9.252;2023-09-19T09:45:12;3.57;;;1.20;;
70733;SDS011;58320;48.804;9.252;2023-09-19T09:48:02;3.53;;;1.20;;
70733;SDS011;58320;48.804;9.252;2023-09-19T09:50:32;4.13;;;1.25;;
70733;SDS011;58320;48.804;9.252;2023-09-19T09:53:22;3.72;;;1.15;;
70733;SDS011;58320;48.804;9.252;2023-09-19T09:55:57;3.45;;;1.20;;
70733;SDS011;58320;48.804;9.252;2023-09-19T10:01:13;3.47;;;1.13;;
70733;SDS011;58320;48.804;9.252;2023-09-19T10:03:43;3.70;;;1.30;;
70733;SDS011;58320;48.804;9.252;2023-09-19T10:06:13;5.80;;;1.30;;
70733;SDS011;58320;48.804;9.252;2023-09-19T10:11:35;3.73;;;1.20;;
70733;SDS011;58320;48.804;9.252;2023-09-19T10:14:08;2.70;;;1.00;;
70733;SDS011;58320;48.804;9.252;2023-09-19T10:16:39;2.97;;;1.45;;
70733;SDS011;58320;48.804;9.252;2023-09-19T10:19:11;3.65;;;1.10;;
70733;SDS011;58320;48.804;9.252;2023-09-19T10:21:49;4.18;;;1.10;;
70733;SDS011;58320;48.804;9.252;2023-09-19T10:24:16;3.13;;;1.30;;
70733;SDS011;58320;48.804;9.252;2023-09-19T10:26:45;4.13;;;1.23;;
70733;SDS011;58320;48.804;9.252;2023-09-19T10:29:13;2.80;;;1.15;;
70733;SDS011;58320;48.804;9.252;2023-09-19T10:31:41;3.08;;;1.20;;
70733;SDS011;58320;48.804;9.252;2023-09-19T10:34:12;3.03;;;0.98;;
70733;SDS011;58320;48.804;9.252;2023-09-19T10:36:45;2.70;;;0.93;;
70733;SDS011;58320;48.804;9.252;2023-09-19T10:39:12;2.88;;;1.05;;
70733;SDS011;58320;48.804;9.252;2023-09-19T10:41:45;3.58;;;1.20;;
70733;SDS011;58320;48.804;9.252;2023-09-19T10:44:21;4.25;;;1.10;;
70733;SDS011;58320;48.804;9.252;2023-09-19T10:46:51;3.67;;;1.15;;
70733;SDS011;58320;48.804;9.252;2023-09-19T10:49:19;3.13;;;1.03;;
70733;SDS011;58320;48.804;9.252;2023-09-19T10:51:46;3.67;;;1.23;;
70733;SDS011;58320;48.804;9.252;2023-09-19T10:54:16;3.33;;;0.98;;
70733;SDS011;58320;48.804;9.252;2023-09-19T10:56:46;3.25;;;1.10;;
70733;SDS011;58320;48.804;9.252;2023-09-19T10:59:16;2.70;;;1.05;;
70733;SDS011;58320;48.804;9.252;2023-09-19T11:01:53;3.80;;;1.40;;
70733;SDS011;58320;48.804;9.252;2023-09-19T11:15:00;3.57;;;1.10;;
70733;SDS011;58320;48.804;9.252;2023-09-19T11:30:50;2.88;;;1.00;;
70733;SDS011;58320;48.804;9.252;2023-09-19T11:36:15;2.65;;;0.93;;
70733;SDS011;58320;48.804;9.252;2023-09-19T11:43:51;2.50;;;0.80;;
70733;SDS011;58320;48.804;9.252;2023-09-19T11:46:25;2.60;;;0.80;;
70733;SDS011;58320;48.804;9.252;2023-09-19T11:48:53;2.67;;;0.80;;
70733;SDS011;58320;48.804;9.252;2023-09-19T11:51:20;4.13;;;1.17;;
70733;SDS011;58320;48.804;9.252;2023-09-19T11:53:51;2.53;;;1.00;;
70733;SDS011;58320;48.804;9.252;2023-09-19T11:56:23;2.83;;;1.00;;
70733;SDS011;58320;48.804;9.252;2023-09-19T11:58:51;3.83;;;1.05;;
70733;SDS011;58320;48.804;9.252;2023-09-19T12:03:54;3.40;;;1.00;;
70733;SDS011;58320;48.804;9.252;2023-09-19T12:06:23;2.40;;;0.95;;
70733;SDS011;58320;48.804;9.252;2023-09-19T12:08:51;3.23;;;0.90;;
70733;SDS011;58320;48.804;9.252;2023-09-19T12:11:19;3.92;;;1.30;;
70733;SDS011;58320;48.804;9.252;2023-09-19T12:13:48;3.42;;;1.10;;
70733;SDS011;58320;48.804;9.252;2023-09-19T12:16:15;3.88;;;1.00;;
70733;SDS011;58320;48.804;9.252;2023-09-19T12:18:47;2.88;;;1.05;;
70733;SDS011;58320;48.804;9.252;2023-09-19T12:21:30;2.23;;;0.90;;
70733;SDS011;58320;48.804;9.252;2023-09-19T12:24:07;5.05;;;1.10;;
70733;SDS011;58320;48.804;9.252;2023-09-19T12:26:44;2.47;;;0.90;;
70733;SDS011;58320;48.804;9.252;2023-09-19T12:29:18;3.22;;;1.08;;
70733;SDS011;58320;48.804;9.252;2023-09-19T12:34:17;2.83;;;1.13;;
70733;SDS011;58320;48.804;9.252;2023-09-19T12:37:13;3.65;;;1.10;;
70733;SDS011;58320;48.804;9.252;2023-09-19T12:39:47;3.22;;;1.10;;
70733;SDS011;58320;48.804;9.252;2023-09-19T12:42:17;2.67;;;1.05;;
70733;SDS011;58320;48.804;9.252;2023-09-19T12:44:49;3.00;;;1.10;;
70733;SDS011;58320;48.804;9.252;2023-09-19T12:47:21;2.63;;;1.00;;
70733;SDS011;58320;48.804;9.252;2023-09-19T12:55:20;2.63;;;1.27;;
70733;SDS011;58320;48.804;9.252;2023-09-19T13:00:40;2.90;;;1.20;;
70733;SDS011;58320;48.804;9.252;2023-09-19T13:03:18;2.53;;;1.10;;
70733;SDS011;58320;48.804;9.252;2023-09-19T13:05:54;3.92;;;1.13;;
70733;SDS011;58320;48.804;9.252;2023-09-19T13:13:38;3.80;;;1.40;;
70733;SDS011;58320;48.804;9.252;2023-09-19T13:16:10;3.47;;;1.25;;
70733;SDS011;58320;48.804;9.252;2023-09-19T13:18:46;3.83;;;1.13;;
70733;SDS011;58320;48.804;9.252;2023-09-19T13:21:16;2.70;;;1.00;;
70733;SDS011;58320;48.804;9.252;2023-09-19T13:23:56;2.80;;;1.13;;
70733;SDS011;58320;48.804;9.252;2023-09-19T13:26:44;6.07;;;1.30;;
70733;SDS011;58320;48.804;9.252;2023-09-19T13:29:10;4.60;;;1.30;;
70733;SDS011;58320;48.804;9.252;2023-09-19T13:31:37;2.95;;;1.20;;
70733;SDS011;58320;48.804;9.252;2023-09-19T13:34:06;2.90;;;1.20;;
70733;SDS011;58320;48.804;9.252;2023-09-19T13:36:32;4.00;;;1.13;;
70733;SDS011;58320;48.804;9.252;2023-09-19T13:38:58;3.55;;;1.13;;
70733;SDS011;58320;48.804;9.252;2023-09-19T13:41:25;2.80;;;1.10;;
70733;SDS011;58320;48.804;9.252;2023-09-19T13:43:51;2.85;;;1.15;;
70733;SDS011;58320;48.804;9.252;2023-09-19T13:46:17;3.43;;;1.30;;
70733;SDS011;58320;48.804;9.252;2023-09-19T13:48:50;3.70;;;1.15;;
70733;SDS011;58320;48.804;9.252;2023-09-19T13:51:19;3.45;;;1.02;;
70733;SDS011;58320;48.804;9.252;2023-09-19T13:53:50;4.72;;;1.30;;
70733;SDS011;58320;48.804;9.252;2023-09-19T13:56:16;4.00;;;1.33;;
70733;SDS011;58320;48.804;9.252;2023-09-19T13:58:42;2.83;;;1.17;;
70733;SDS011;58320;48.804;9.252;2023-09-19T14:01:08;3.08;;;1.10;;
70733;SDS011;58320;48.804;9.252;2023-09-19T14:03:40;3.95;;;1.23;;
70733;SDS011;58320;48.804;9.252;2023-09-19T14:06:12;4.57;;;1.30;;
70733;SDS011;58320;48.804;9.252;2023-09-19T14:08:38;3.05;;;1.10;;
70733;SDS011;58320;48.804;9.252;2023-09-19T14:11:10;2.63;;;1.10;;
70733;SDS011;58320;48.804;9.252;2023-09-19T14:13:35;2.50;;;1.15;;
70733;SDS011;58320;48.804;9.252;2023-09-19T14:16:04;3.87;;;1.23;;
70733;SDS011;58320;48.804;9.252;2023-09-19T14:18:34;3.10;;;1.20;;
70733;SDS011;58320;48.804;9.252;2023-09-19T14:21:04;4.05;;;1.30;;
70733;SDS011;58320;48.804;9.252;2023-09-19T14:23:36;2.67;;;1.17;;
70733;SDS011;58320;48.804;9.252;2023-09-19T14:26:04;2.90;;;1.20;;
70733;SDS011;58320;48.804;9.252;2023-09-19T14:28:31;4.03;;;1.20;;
70733;SDS011;58320;48.804;9.252;2023-09-19T14:31:03;3.72;;;1.42;;
70733;SDS011;58320;48.804;9.252;2023-09-19T14:33:36;2.83;;;1.10;;
70733;SDS011;58320;48.804;9.252;2023-09-19T14:36:06;3.22;;;1.17;;
70733;SDS011;58320;48.804;9.252;2023-09-19T14:38:34;2.40;;;1.07;;
70733;SDS011;58320;48.804;9.252;2023-09-19T14:41:01;2.80;;;1.10;;
70733;SDS011;58320;48.804;9.252;2023-09-19T14:43:29;3.00;;;1.02;;
70733;SDS011;58320;48.804;9.252;2023-09-19T14:45:56;2.55;;;1.10;;
70733;SDS011;58320;48.804;9.252;2023-09-19T14:48:24;2.55;;;1.20;;
70733;SDS011;58320;48.804;9.252;2023-09-19T14:50:51;2.40;;;0.97;;
70733;SDS011;58320;48.804;9.252;2023-09-19T14:53:17;2.70;;;1.10;;
70733;SDS011;58320;48.804;9.252;2023-09-19T14:55:43;3.20;;;1.48;;
70733;SDS011;58320;48.804;9.252;2023-09-19T14:58:12;3.55;;;1.17;;
70733;SDS011;58320;48.804;9.252;2023-09-19T15:00:39;3.13;;;1.07;;
70733;SDS011;58320;48.804;9.252;2023-09-19T15:03:04;2.83;;;1.17;;
70733;SDS011;58320;48.804;9.252;2023-09-19T15:05:30;2.42;;;0.98;;
70733;SDS011;58320;48.804;9.252;2023-09-19T15:07:56;3.10;;;1.10;;
70733;SDS011;58320;48.804;9.252;2023-09-19T15:10:23;2.92;;;1.17;;
70733;SDS011;58320;48.804;9.252;2023-09-19T15:12:49;4.35;;;1.10;;
70733;SDS011;58320;48.804;9.252;2023-09-19T15:15:15;2.55;;;1.02;;
70733;SDS011;58320;48.804;9.252;2023-09-19T15:17:41;3.65;;;1.10;;
70733;SDS011;58320;48.804;9.252;2023-09-19T15:20:07;2.60;;;1.10;;
70733;SDS011;58320;48.804;9.252;2023-09-19T15:22:34;2.75;;;1.20;;
70733;SDS011;58320;48.804;9.252;2023-09-19T15:25:00;2.70;;;1.00;;
70733;SDS011;58320;48.804;9.252;2023-09-19T15:27:27;3.58;;;1.13;;
70733;SDS011;58320;48.804;9.252;2023-09-19T15:29:55;3.20;;;0.80;;
70733;SDS011;58320;48.804;9.252;2023-09-19T15:32:23;2.80;;;1.10;;
70733;SDS011;58320;48.804;9.252;2023-09-19T15:34:49;3.50;;;1.20;;
70733;SDS011;58320;48.804;9.252;2023-09-19T15:37:15;2.63;;;1.13;;
70733;SDS011;58320;48.804;9.252;2023-09-19T15:39:41;2.83;;;1.00;;
70733;SDS011;58320;48.804;9.252;2023-09-19T15:42:09;18.50;;;8.60;;
70733;SDS011;58320;48.804;9.252;2023-09-19T15:44:35;15.50;;;6.72;;
70733;SDS011;58320;48.804;9.252;2023-09-19T15:47:02;16.83;;;8.55;;
70733;SDS011;58320;48.804;9.252;2023-09-19T15:49:29;4.10;;;1.88;;
70733;SDS011;58320;48.804;9.252;2023-09-19T15:51:54;3.03;;;1.13;;
70733;SDS011;58320;48.804;9.252;2023-09-19T15:54:20;2.30;;;1.00;;
70733;SDS011;58320;48.804;9.252;2023-09-19T15:56:47;2.20;;;0.97;;
70733;SDS011;58320;48.804;9.252;2023-09-19T15:59:13;3.30;;;1.02;;
70733;SDS011;58320;48.804;9.252;2023-09-19T16:01:42;2.70;;;1.00;;
70733;SDS011;58320;48.804;9.252;2023-09-19T16:04:09;2.45;;;1.08;;
70733;SDS011;58320;48.804;9.252;2023-09-19T16:06:36;3.63;;;1.17;;
70733;SDS011;58320;48.804;9.252;2023-09-19T16:09:03;2.60;;;0.90;;
70733;SDS011;58320;48.804;9.252;2023-09-19T16:11:31;2.90;;;1.00;;
70733;SDS011;58320;48.804;9.252;2023-09-19T16:13:58;2.78;;;1.10;;